Time;durP1;ratioP1;P1;durP2;ratioP2;P2;SDS_P1;SDS_P2;PMS_P1;PMS_P2;Temp;Humidity;BMP_temperature;BMP_pressure;BME280_temperature;BME280_humidity;BME280_pressure;Samples;Min_cycle;Max_cycle;Signal;HPM_P1;HPM_P2
2023/04/28 00:01:36;;;;;;;12.68;7.45;;;;;;;;;;5098895;27;20438;-79
2023/04/28 00:04:02;;;;;;;12.23;7.68;;;;;;;;;;5100259;27;20418;-79
2023/04/28 00:06:29;;;;;;;11.53;7.30;;;;;;;;;;5117106;27;20406;-79
2023/04/28 00:08:55;;;;;;;11.48;7.32;;;;;;;;;;5096479;27;20491;-78
2023/04/28 00:11:21;;;;;;;10.20;7.30;;;;;;;;;;5096340;27;20418;-79
2023/04/28 00:13:47;;;;;;;10.87;7.53;;;;;;;;;;5114761;27;20423;-79
2023/04/28 00:16:14;;;;;;;10.23;7.32;;;;;;;;;;5094820;28;20806;-79
2023/04/28 00:18:40;;;;;;;12.07;7.78;;;;;;;;;;5083741;28;20420;-80
2023/04/28 00:21:06;;;;;;;13.80;7.50;;;;;;;;;;5086879;27;20407;-79
2023/04/28 00:23:32;;;;;;;10.30;7.45;;;;;;;;;;5098720;27;20418;-80
2023/04/28 00:25:58;;;;;;;9.65;7.05;;;;;;;;;;5098569;27;20481;-80
2023/04/28 00:28:24;;;;;;;12.90;7.68;;;;;;;;;;5097422;27;20932;-80
2023/04/28 00:30:50;;;;;;;13.40;7.18;;;;;;;;;;5097025;27;20445;-79
2023/04/28 00:33:16;;;;;;;9.50;6.90;;;;;;;;;;5092822;27;20498;-79
2023/04/28 00:35:42;;;;;;;10.60;7.10;;;;;;;;;;5114229;27;20917;-79
2023/04/28 00:38:08;;;;;;;11.07;7.43;;;;;;;;;;5098942;27;20421;-78
2023/04/28 00:40:35;;;;;;;11.13;7.37;;;;;;;;;;5114560;27;20410;-79
2023/04/28 00:43:02;;;;;;;12.52;7.68;;;;;;;;;;5080525;27;20413;-79
2023/04/28 00:45:28;;;;;;;11.43;7.45;;;;;;;;;;5072283;28;20419;-79
2023/04/28 00:47:57;;;;;;;11.02;7.10;;;;;;;;;;5108900;27;20917;-80
2023/04/28 00:50:24;;;;;;;10.48;7.53;;;;;;;;;;5114028;27;20497;-79
2023/04/28 00:52:51;;;;;;;11.60;8.00;;;;;;;;;;5095689;27;20406;-79
2023/04/28 00:55:17;;;;;;;11.70;7.87;;;;;;;;;;5115088;27;20415;-79
2023/04/28 00:57:43;;;;;;;11.43;7.32;;;;;;;;;;5093864;28;20408;-79
2023/04/28 01:00:09;;;;;;;9.53;7.37;;;;;;;;;;5114325;27;20414;-79
2023/04/28 01:02:36;;;;;;;10.25;7.03;;;;;;;;;;5108513;27;20445;-79
2023/04/28 01:05:02;;;;;;;11.38;7.88;;;;;;;;;;5113833;27;20945;-79
2023/04/28 01:07:28;;;;;;;12.77;7.37;;;;;;;;;;5114011;27;20799;-80
2023/04/28 01:09:55;;;;;;;11.27;7.68;;;;;;;;;;5115637;27;20503;-80
2023/04/28 01:12:21;;;;;;;10.63;7.27;;;;;;;;;;5114477;27;20491;-79
2023/04/28 01:14:48;;;;;;;10.93;7.47;;;;;;;;;;5096235;27;20426;-79
2023/04/28 01:17:14;;;;;;;12.93;8.25;;;;;;;;;;5095208;27;20956;-80
2023/04/28 01:19:40;;;;;;;13.38;7.65;;;;;;;;;;5111787;27;20815;-79
2023/04/28 01:22:06;;;;;;;11.70;7.32;;;;;;;;;;5114878;27;20386;-80
2023/04/28 01:24:32;;;;;;;10.73;7.40;;;;;;;;;;5076763;28;20426;-80
2023/04/28 01:26:58;;;;;;;10.02;7.35;;;;;;;;;;5112414;27;20933;-79
2023/04/28 01:29:25;;;;;;;13.02;7.97;;;;;;;;;;5096537;27;20414;-79
2023/04/28 01:31:51;;;;;;;10.02;7.20;;;;;;;;;;5088429;28;20427;-79
2023/04/28 01:34:17;;;;;;;10.43;7.55;;;;;;;;;;5093179;27;20422;-80
2023/04/28 01:36:43;;;;;;;11.07;7.57;;;;;;;;;;5094091;27;20502;-79
2023/04/28 01:39:09;;;;;;;12.20;7.72;;;;;;;;;;5114019;27;20886;-79
2023/04/28 01:41:35;;;;;;;11.87;7.97;;;;;;;;;;5114507;27;20430;-79
2023/04/28 01:44:02;;;;;;;12.90;8.63;;;;;;;;;;5107651;27;20418;-77
2023/04/28 01:46:29;;;;;;;12.27;7.80;;;;;;;;;;5091171;27;20426;-77
2023/04/28 01:48:55;;;;;;;12.32;8.30;;;;;;;;;;5112360;27;20406;-79
2023/04/28 01:51:21;;;;;;;12.23;8.20;;;;;;;;;;5096881;27;20918;-78
2023/04/28 01:53:47;;;;;;;12.57;8.20;;;;;;;;;;5113713;27;20462;-79
2023/04/28 01:56:13;;;;;;;13.45;8.18;;;;;;;;;;5112590;27;20421;-78
2023/04/28 01:58:39;;;;;;;12.50;9.00;;;;;;;;;;5095993;27;20407;-78
2023/04/28 02:01:05;;;;;;;12.67;8.80;;;;;;;;;;5112003;27;20491;-79
2023/04/28 02:03:31;;;;;;;16.02;9.30;;;;;;;;;;5112784;27;20485;-78
2023/04/28 02:05:57;;;;;;;13.95;8.80;;;;;;;;;;5113977;27;20865;-79
2023/04/28 02:08:23;;;;;;;14.23;9.57;;;;;;;;;;5113696;27;20418;-79
2023/04/28 02:10:49;;;;;;;14.65;9.65;;;;;;;;;;5096232;27;20548;-79
2023/04/28 02:13:16;;;;;;;12.98;9.20;;;;;;;;;;5097380;27;20417;-79
2023/04/28 02:15:42;;;;;;;14.70;9.43;;;;;;;;;;5112692;28;20779;-79
2023/04/28 02:18:08;;;;;;;15.43;10.02;;;;;;;;;;5114669;28;20871;-78
2023/04/28 02:20:34;;;;;;;17.38;10.98;;;;;;;;;;5098462;28;20411;-79
2023/04/28 02:23:01;;;;;;;15.23;10.07;;;;;;;;;;5112310;28;20406;-79
2023/04/28 02:25:27;;;;;;;16.30;10.60;;;;;;;;;;5095842;28;20418;-79
2023/04/28 02:27:53;;;;;;;18.60;10.43;;;;;;;;;;5095476;28;20410;-80
2023/04/28 02:30:19;;;;;;;16.42;10.73;;;;;;;;;;5113163;27;20414;-79
2023/04/28 02:32:45;;;;;;;15.52;10.52;;;;;;;;;;5100042;27;20422;-79
2023/04/28 02:35:11;;;;;;;16.45;9.98;;;;;;;;;;5101709;27;20476;-80
2023/04/28 02:37:37;;;;;;;15.43;11.13;;;;;;;;;;5117093;27;20418;-79
2023/04/28 02:40:04;;;;;;;17.35;11.27;;;;;;;;;;5101818;27;20391;-79
2023/04/28 02:42:30;;;;;;;15.57;11.50;;;;;;;;;;5098401;27;20424;-79
2023/04/28 02:44:56;;;;;;;15.93;11.70;;;;;;;;;;5109117;27;20418;-79
2023/04/28 02:47:22;;;;;;;16.08;11.07;;;;;;;;;;5128855;27;20417;-80
2023/04/28 02:49:48;;;;;;;15.80;11.10;;;;;;;;;;5117870;27;20477;-80
2023/04/28 02:52:14;;;;;;;19.33;11.18;;;;;;;;;;5112588;27;20462;-79
2023/04/28 02:54:40;;;;;;;16.75;11.60;;;;;;;;;;5096038;28;20435;-80
2023/04/28 02:57:06;;;;;;;17.60;11.85;;;;;;;;;;5108072;27;20747;-79
2023/04/28 02:59:33;;;;;;;18.88;11.85;;;;;;;;;;5113199;27;20413;-79
2023/04/28 03:01:59;;;;;;;17.52;11.48;;;;;;;;;;5111208;27;20472;-79
2023/04/28 03:04:26;;;;;;;17.30;12.23;;;;;;;;;;5096639;27;20415;-79
2023/04/28 03:06:52;;;;;;;16.77;12.13;;;;;;;;;;5083440;27;20414;-79
2023/04/28 03:09:18;;;;;;;18.88;12.25;;;;;;;;;;5115332;27;20491;-80
2023/04/28 03:11:44;;;;;;;18.52;11.95;;;;;;;;;;5099874;27;20422;-79
2023/04/28 03:14:10;;;;;;;19.35;12.20;;;;;;;;;;5091750;27;20416;-79
2023/04/28 03:16:36;;;;;;;18.73;12.35;;;;;;;;;;5116522;27;20467;-79
2023/04/28 03:19:02;;;;;;;19.90;12.13;;;;;;;;;;5117732;27;20478;-79
2023/04/28 03:21:28;;;;;;;21.00;11.60;;;;;;;;;;5117540;27;20406;-77
2023/04/28 03:23:54;;;;;;;17.42;11.73;;;;;;;;;;5108986;27;20880;-78
2023/04/28 03:26:21;;;;;;;18.15;11.70;;;;;;;;;;5132323;27;20418;-77
2023/04/28 03:28:47;;;;;;;19.80;12.45;;;;;;;;;;5113065;27;20414;-77
2023/04/28 03:31:13;;;;;;;18.27;12.32;;;;;;;;;;5090434;27;20478;-77
2023/04/28 03:33:40;;;;;;;17.93;11.57;;;;;;;;;;5108339;27;20433;-78
2023/04/28 03:36:06;;;;;;;17.85;12.48;;;;;;;;;;5114253;27;20415;-78
2023/04/28 03:38:32;;;;;;;18.25;12.63;;;;;;;;;;5117496;27;20406;-79
2023/04/28 03:40:58;;;;;;;20.00;12.57;;;;;;;;;;5110032;28;20751;-77
2023/04/28 03:43:24;;;;;;;18.98;12.93;;;;;;;;;;5104976;27;21039;-77
2023/04/28 03:45:51;;;;;;;18.50;12.88;;;;;;;;;;5117350;27;20398;-77
2023/04/28 03:48:17;;;;;;;19.47;13.13;;;;;;;;;;5098665;27;20470;-78
2023/04/28 03:50:44;;;;;;;21.10;13.30;;;;;;;;;;5112735;27;20410;-78
2023/04/28 03:53:10;;;;;;;19.30;12.50;;;;;;;;;;5079557;28;20495;-77
2023/04/28 03:55:37;;;;;;;19.35;12.63;;;;;;;;;;5098290;28;20430;-77
2023/04/28 03:58:03;;;;;;;21.30;13.18;;;;;;;;;;5091774;28;20907;-77
2023/04/28 04:00:29;;;;;;;19.60;13.18;;;;;;;;;;5090858;27;20406;-77
2023/04/28 04:02:55;;;;;;;19.13;13.20;;;;;;;;;;5100279;27;20389;-78
2023/04/28 04:05:21;;;;;;;22.55;13.40;;;;;;;;;;5097723;27;20427;-78
2023/04/28 04:07:47;;;;;;;21.33;13.25;;;;;;;;;;5112585;27;20422;-78
2023/04/28 04:10:13;;;;;;;20.90;13.45;;;;;;;;;;5099385;27;20409;-77
2023/04/28 04:12:39;;;;;;;19.27;13.73;;;;;;;;;;5115490;27;20963;-78
2023/04/28 04:15:06;;;;;;;19.20;13.05;;;;;;;;;;5097670;27;20514;-77
2023/04/28 04:17:32;;;;;;;20.03;13.10;;;;;;;;;;5133951;27;20463;-78
2023/04/28 04:19:58;;;;;;;20.02;13.55;;;;;;;;;;5079250;28;20443;-78
2023/04/28 04:22:24;;;;;;;20.50;13.40;;;;;;;;;;5109056;27;20423;-77
2023/04/28 04:24:50;;;;;;;21.23;13.68;;;;;;;;;;5113395;27;20426;-77
2023/04/28 04:27:18;;;;;;;22.98;14.02;;;;;;;;;;5112102;27;20505;-78
2023/04/28 04:29:44;;;;;;;24.33;14.77;;;;;;;;;;5124626;27;20494;-76
2023/04/28 04:32:10;;;;;;;20.65;14.38;;;;;;;;;;5099498;27;20439;-76
2023/04/28 04:34:36;;;;;;;20.10;14.27;;;;;;;;;;5113190;27;20777;-77
2023/04/28 04:37:02;;;;;;;23.05;14.45;;;;;;;;;;5114028;27;20455;-79
2023/04/28 04:39:28;;;;;;;20.88;14.50;;;;;;;;;;5129096;27;20438;-77
2023/04/28 04:41:54;;;;;;;21.97;14.47;;;;;;;;;;5134619;27;20593;-78
2023/04/28 04:44:20;;;;;;;23.70;14.98;;;;;;;;;;5114198;27;20418;-77
2023/04/28 04:46:46;;;;;;;23.35;14.63;;;;;;;;;;5130676;27;20410;-78
2023/04/28 04:49:12;;;;;;;23.43;14.53;;;;;;;;;;5131961;27;20478;-78
2023/04/28 04:51:38;;;;;;;22.17;15.20;;;;;;;;;;5097377;27;20411;-76
2023/04/28 04:54:05;;;;;;;23.05;14.25;;;;;;;;;;5128187;27;20994;-77
2023/04/28 04:56:31;;;;;;;21.23;14.82;;;;;;;;;;5115351;27;20809;-77
2023/04/28 04:58:57;;;;;;;21.15;13.90;;;;;;;;;;5077471;28;20419;-78
2023/04/28 05:01:23;;;;;;;22.47;14.63;;;;;;;;;;5105265;27;20567;-77
2023/04/28 05:03:49;;;;;;;19.77;13.40;;;;;;;;;;5133989;27;20398;-78
2023/04/28 05:06:15;;;;;;;22.33;14.45;;;;;;;;;;5114535;27;20933;-78
2023/04/28 05:08:41;;;;;;;22.08;13.82;;;;;;;;;;5112221;27;20419;-78
2023/04/28 05:11:07;;;;;;;21.27;13.98;;;;;;;;;;5114914;27;20513;-78
2023/04/28 05:13:33;;;;;;;23.65;14.40;;;;;;;;;;5112768;27;20458;-78
2023/04/28 05:15:59;;;;;;;22.42;13.90;;;;;;;;;;5098932;28;20471;-79
2023/04/28 05:18:26;;;;;;;19.45;14.10;;;;;;;;;;5073332;28;20475;-79
2023/04/28 05:20:52;;;;;;;19.43;13.50;;;;;;;;;;5088532;28;20493;-79
2023/04/28 05:23:18;;;;;;;21.77;13.57;;;;;;;;;;5068830;28;20418;-79
2023/04/28 05:25:44;;;;;;;20.33;13.75;;;;;;;;;;5090022;28;20410;-79
2023/04/28 05:28:10;;;;;;;21.20;14.88;;;;;;;;;;5091620;28;20434;-79
2023/04/28 05:30:36;;;;;;;22.73;14.20;;;;;;;;;;5073290;28;20417;-79
2023/04/28 05:33:03;;;;;;;21.30;13.38;;;;;;;;;;5088444;28;20404;-79
2023/04/28 05:35:30;;;;;;;20.40;13.68;;;;;;;;;;5040825;28;20423;-79
2023/04/28 05:37:56;;;;;;;21.80;14.10;;;;;;;;;;5075773;28;20824;-79
2023/04/28 05:40:23;;;;;;;19.60;13.32;;;;;;;;;;5070323;28;20430;-79
2023/04/28 05:42:49;;;;;;;20.13;13.70;;;;;;;;;;5091272;28;20422;-80
2023/04/28 05:45:15;;;;;;;20.08;13.70;;;;;;;;;;5092223;28;20437;-79
2023/04/28 05:47:41;;;;;;;21.60;14.38;;;;;;;;;;5082220;28;20505;-78
2023/04/28 05:50:07;;;;;;;21.60;13.88;;;;;;;;;;5054180;28;20423;-77
2023/04/28 05:52:33;;;;;;;20.88;13.80;;;;;;;;;;5056050;28;20426;-78
2023/04/28 05:54:59;;;;;;;18.98;13.48;;;;;;;;;;5073250;28;20816;-78
2023/04/28 05:57:26;;;;;;;21.23;14.02;;;;;;;;;;5075362;28;20397;-78
2023/04/28 05:59:52;;;;;;;22.17;14.38;;;;;;;;;;5088601;28;20418;-78
2023/04/28 06:02:18;;;;;;;20.85;13.82;;;;;;;;;;5083191;28;20422;-78
2023/04/28 06:04:44;;;;;;;21.15;13.27;;;;;;;;;;5080475;28;20936;-78
2023/04/28 06:07:10;;;;;;;19.58;13.20;;;;;;;;;;5083375;28;20464;-78
2023/04/28 06:09:36;;;;;;;20.05;13.65;;;;;;;;;;5067589;28;20430;-78
2023/04/28 06:12:02;;;;;;;22.58;14.02;;;;;;;;;;5070748;28;20420;-78
2023/04/28 06:14:29;;;;;;;18.80;13.00;;;;;;;;;;5082589;28;20457;-77
2023/04/28 06:16:57;;;;;;;21.13;14.13;;;;;;;;;;5093248;28;21801;-77
2023/04/28 06:19:23;;;;;;;20.67;13.57;;;;;;;;;;5104468;28;20514;-77
2023/04/28 06:21:50;;;;;;;20.10;13.90;;;;;;;;;;5110038;28;20419;-77
2023/04/28 06:24:16;;;;;;;20.83;14.02;;;;;;;;;;5099003;28;20785;-77
2023/04/28 06:26:42;;;;;;;21.55;14.18;;;;;;;;;;5092848;28;20469;-77
2023/04/28 06:29:08;;;;;;;22.45;15.45;;;;;;;;;;5105968;28;20499;-77
2023/04/28 06:31:34;;;;;;;19.10;12.73;;;;;;;;;;5072496;28;20480;-77
2023/04/28 06:34:00;;;;;;;19.00;13.03;;;;;;;;;;5093297;28;20757;-77
2023/04/28 06:36:27;;;;;;;19.42;14.32;;;;;;;;;;5109597;28;20464;-77
2023/04/28 06:38:53;;;;;;;21.17;13.63;;;;;;;;;;5108093;28;20449;-77
2023/04/28 06:41:19;;;;;;;20.00;13.38;;;;;;;;;;5109121;28;20416;-78
2023/04/28 06:43:45;;;;;;;23.65;14.02;;;;;;;;;;5078677;28;20484;-78
2023/04/28 06:46:11;;;;;;;20.77;14.20;;;;;;;;;;5073327;28;20421;-76
2023/04/28 06:48:37;;;;;;;19.73;13.57;;;;;;;;;;5110738;28;20416;-77
2023/04/28 06:51:04;;;;;;;18.35;13.27;;;;;;;;;;5095165;28;20756;-77
2023/04/28 06:53:30;;;;;;;21.20;13.93;;;;;;;;;;5075896;28;20437;-78
2023/04/28 06:55:56;;;;;;;18.30;14.27;;;;;;;;;;5110053;28;20851;-77
2023/04/28 06:58:22;;;;;;;22.17;14.45;;;;;;;;;;5109567;28;20419;-78
2023/04/28 07:00:48;;;;;;;20.33;13.70;;;;;;;;;;5088971;28;20498;-78
2023/04/28 07:03:14;;;;;;;19.98;13.43;;;;;;;;;;5106449;28;20933;-78
2023/04/28 07:05:40;;;;;;;20.50;14.02;;;;;;;;;;5087177;28;20435;-78
2023/04/28 07:08:07;;;;;;;22.03;13.93;;;;;;;;;;5090268;28;20424;-78
2023/04/28 07:10:33;;;;;;;22.02;13.75;;;;;;;;;;5074859;28;20461;-77
2023/04/28 07:12:59;;;;;;;19.45;13.65;;;;;;;;;;5105611;28;20419;-77
2023/04/28 07:15:25;;;;;;;19.38;13.75;;;;;;;;;;5111461;28;20428;-77
2023/04/28 07:17:51;;;;;;;21.80;14.27;;;;;;;;;;5111600;28;20414;-78
2023/04/28 07:20:18;;;;;;;18.30;13.48;;;;;;;;;;5111943;28;20412;-78
2023/04/28 07:22:44;;;;;;;21.27;13.85;;;;;;;;;;5111346;28;20480;-78
2023/04/28 07:25:10;;;;;;;20.15;13.98;;;;;;;;;;5110092;28;20420;-78
2023/04/28 07:27:36;;;;;;;20.98;13.23;;;;;;;;;;5089407;28;20919;-79
2023/04/28 07:30:03;;;;;;;20.90;13.50;;;;;;;;;;5094298;28;20412;-79
2023/04/28 07:32:29;;;;;;;18.75;13.35;;;;;;;;;;5089938;28;20409;-78
2023/04/28 07:34:55;;;;;;;20.38;13.68;;;;;;;;;;5095853;28;20503;-80
2023/04/28 07:37:22;;;;;;;22.27;13.88;;;;;;;;;;5093958;28;20416;-79
2023/04/28 07:39:48;;;;;;;17.88;14.27;;;;;;;;;;5092448;28;20449;-79
2023/04/28 07:42:14;;;;;;;19.77;12.73;;;;;;;;;;5112950;28;20415;-79
2023/04/28 07:44:40;;;;;;;18.33;12.95;;;;;;;;;;5069132;28;20469;-80
2023/04/28 07:47:06;;;;;;;20.02;12.88;;;;;;;;;;5089243;28;20416;-81
2023/04/28 07:49:32;;;;;;;20.00;12.27;;;;;;;;;;5099076;28;20415;-79
2023/04/28 07:51:58;;;;;;;18.50;12.77;;;;;;;;;;5115274;28;20433;-80
2023/04/28 07:54:24;;;;;;;18.07;12.63;;;;;;;;;;5115145;28;20459;-77
2023/04/28 07:56:51;;;;;;;18.10;12.55;;;;;;;;;;5115069;28;20438;-75
2023/04/28 07:59:17;;;;;;;19.35;12.27;;;;;;;;;;5114103;28;20451;-76
2023/04/28 08:01:43;;;;;;;16.15;11.95;;;;;;;;;;5110564;28;20432;-76
2023/04/28 08:04:10;;;;;;;19.02;12.55;;;;;;;;;;5094399;28;20421;-76
2023/04/28 08:06:36;;;;;;;15.93;12.45;;;;;;;;;;5107857;28;20431;-75
2023/04/28 08:09:04;;;;;;;19.55;14.10;;;;;;;;;;5111381;28;20534;-75
2023/04/28 08:11:30;;;;;;;20.30;13.43;;;;;;;;;;5109276;28;20420;-74
2023/04/28 08:14:00;;;;;;;18.10;13.07;;;;;;;;;;5084859;28;20453;-75
2023/04/28 08:16:26;;;;;;;17.88;12.50;;;;;;;;;;5095355;28;20477;-75
2023/04/28 08:18:52;;;;;;;19.83;12.40;;;;;;;;;;5114768;28;20401;-75
2023/04/28 08:21:18;;;;;;;18.20;11.95;;;;;;;;;;5100029;28;20405;-75
2023/04/28 08:23:45;;;;;;;18.45;12.85;;;;;;;;;;5100952;28;20428;-74
2023/04/28 08:26:11;;;;;;;17.55;12.30;;;;;;;;;;5092806;28;20420;-73
2023/04/28 08:28:38;;;;;;;21.65;14.23;;;;;;;;;;5092954;28;20511;-73
2023/04/28 08:31:05;;;;;;;22.65;14.23;;;;;;;;;;5109857;28;20927;-73
2023/04/28 08:33:31;;;;;;;22.45;15.20;;;;;;;;;;5093657;28;20447;-74
2023/04/28 08:35:57;;;;;;;20.40;13.60;;;;;;;;;;5104852;28;20412;-74
2023/04/28 08:38:24;;;;;;;18.40;13.40;;;;;;;;;;5095575;28;20474;-73
2023/04/28 08:40:50;;;;;;;23.57;13.97;;;;;;;;;;5093404;28;21026;-74
2023/04/28 08:43:16;;;;;;;21.33;13.88;;;;;;;;;;5109387;28;20416;-75
2023/04/28 08:45:44;;;;;;;20.83;13.85;;;;;;;;;;5092953;28;20420;-74
2023/04/28 08:48:20;;;;;;;20.50;13.80;;;;;;;;;;5091165;28;20942;-75
2023/04/28 08:50:52;;;;;;;17.70;12.40;;;8.80;99.90;;;;;;5084702;28;20768;-75
2023/04/28 08:53:25;;;;;;;17.55;12.15;;;;;;;;;;5091119;28;20507;-75
2023/04/28 08:55:55;;;;;;;20.58;12.70;;;;;;;;;;5103180;28;20448;-75
2023/04/28 08:58:25;;;;;;;18.60;12.45;;;9.70;99.90;;;;;;5111083;28;20400;-78
2023/04/28 09:00:52;;;;;;;17.88;12.05;;;;;;;;;;5091585;28;20443;-77
2023/04/28 09:03:18;;;;;;;21.77;13.05;;;;;;;;;;5080699;28;20449;-76
2023/04/28 09:05:44;;;;;;;18.48;12.85;;;;;;;;;;5101655;28;20436;-75
2023/04/28 09:08:11;;;;;;;17.23;12.35;;;;;;;;;;5107370;28;20915;-75
2023/04/28 09:10:37;;;;;;;19.35;12.48;;;;;;;;;;5103370;28;20423;-76
2023/04/28 09:13:04;;;;;;;18.63;13.82;;;;;;;;;;5108581;28;20527;-76
2023/04/28 09:15:33;;;;;;;20.10;13.98;;;;;;;;;;5114234;27;20449;-75
2023/04/28 09:17:59;;;;;;;16.38;12.95;;;;;;;;;;5106710;27;20434;-75
2023/04/28 09:20:27;;;;;;;17.43;12.77;;;;;;;;;;5108612;27;20426;-76
2023/04/28 09:22:55;;;;;;;19.80;12.98;;;;;;;;;;5104835;27;20469;-78
2023/04/28 09:25:22;;;;;;;17.05;12.07;;;9.80;99.90;;;;;;5111648;27;21047;-78
2023/04/28 09:27:51;;;;;;;19.30;13.05;;;;;;;;;;5083072;28;20455;-78
2023/04/28 09:30:19;;;;;;;19.65;13.73;;;;;;;;;;5087081;27;20402;-78
2023/04/28 09:32:45;;;;;;;16.88;12.70;;;;;;;;;;5096582;27;20437;-78
2023/04/28 09:35:11;;;;;;;19.33;13.65;;;;;;;;;;5109386;27;20414;-78
2023/04/28 09:37:37;;;;;;;18.20;12.60;;;;;;;;;;5080231;27;20747;-79
2023/04/28 09:40:11;;;;;;;17.48;12.68;;;10.70;99.90;;;;;;5092817;28;20440;-79
2023/04/28 09:42:44;;;;;;;19.80;12.50;;;;;;;;;;5105819;27;20419;-79
2023/04/28 09:45:12;;;;;;;17.80;11.70;;;;;;;;;;5095830;27;20505;-79
2023/04/28 09:47:46;;;;;;;17.00;12.40;;;11.60;99.90;;;;;;5087269;27;20820;-79
2023/04/28 09:50:13;;;;;;;16.83;12.32;;;;;;;;;;5105483;27;20917;-79
2023/04/28 09:52:44;;;;;;;17.23;12.00;;;11.60;99.90;;;;;;5090522;27;21221;-77
2023/04/28 09:55:11;;;;;;;16.30;12.38;;;11.60;99.90;;;;;;5091746;27;20895;-78
2023/04/28 09:57:38;;;;;;;15.97;12.30;;;11.50;99.90;;;;;;5091816;27;20780;-78
2023/04/28 10:00:07;;;;;;;16.47;12.40;;;;;;;;;;5106224;27;20412;-78
2023/04/28 10:02:35;;;;;;;17.50;11.85;;;11.80;99.90;;;;;;5109381;27;20453;-78
2023/04/28 10:05:02;;;;;;;17.27;12.30;;;;;;;;;;5108457;27;20509;-77
2023/04/28 10:07:29;;;;;;;15.25;11.65;;;;;;;;;;5104683;28;20450;-78
2023/04/28 10:09:56;;;;;;;15.10;11.20;;;;;;;;;;5079342;28;20427;-79
2023/04/28 10:12:23;;;;;;;17.05;12.18;;;;;;;;;;5079433;27;20427;-78
2023/04/28 10:14:53;;;;;;;15.52;11.52;;;;;;;;;;5077229;28;20946;-79
2023/04/28 10:17:20;;;;;;;15.73;11.32;;;;;;;;;;5099968;28;20778;-79
2023/04/28 10:19:47;;;;;;;17.13;11.82;;;;;;;;;;5108455;28;20804;-78
2023/04/28 10:22:33;;;;;;;18.13;11.90;;;12.00;99.90;;;;;;5110542;28;20406;-79
2023/04/28 10:25:11;;;;;;;16.00;11.65;;;;;;;;;;5109597;28;20421;-78
2023/04/28 10:27:45;;;;;;;17.08;11.90;;;;;;;;;;5094679;28;20775;-78
2023/04/28 10:30:19;;;;;;;17.55;11.30;;;;;;;;;;5097488;28;20418;-78
2023/04/28 10:32:46;;;;;;;17.97;11.67;;;;;;;;;;5104769;28;20453;-78
2023/04/28 10:35:35;;;;;;;15.88;12.00;;;;;;;;;;5116353;28;20420;-78
2023/04/28 10:38:04;;;;;;;14.65;11.25;;;;;;;;;;5088980;28;20436;-78
2023/04/28 10:40:33;;;;;;;15.48;11.55;;;;;;;;;;5114174;28;20913;-79
2023/04/28 10:42:59;;;;;;;15.77;11.77;;;;;;;;;;5083524;28;20420;-78
2023/04/28 10:45:44;;;;;;;17.60;11.85;;;;;;;;;;5098578;28;20421;-78
2023/04/28 10:48:10;;;;;;;15.43;11.07;;;;;;;;;;5127732;28;20410;-78
2023/04/28 10:50:36;;;;;;;18.13;12.20;;;;;;;;;;5104865;27;20900;-78
2023/04/28 10:53:03;;;;;;;19.67;11.82;;;;;;;;;;5113433;27;20418;-78
2023/04/28 10:55:32;;;;;;;16.73;11.07;;;;;;;;;;5115633;27;20414;-79
2023/04/28 10:58:19;;;;;;;16.48;11.52;;;;;;;;;;5116840;27;20755;-78
2023/04/28 11:00:46;;;;;;;14.00;11.00;;;11.90;99.90;;;;;;5113959;27;20849;-78
2023/04/28 11:03:43;;;;;;;15.93;11.52;;;12.30;99.90;;;;;;5116533;27;20449;-80
2023/04/28 11:06:24;;;;;;;15.95;11.90;;;;;;;;;;5098729;27;20476;-78
2023/04/28 11:08:51;;;;;;;14.68;11.20;;;;;;;;;;5115068;27;20766;-77
2023/04/28 11:11:18;;;;;;;14.27;11.15;;;;;;;;;;5102922;27;20484;-77
2023/04/28 11:13:45;;;;;;;12.90;10.77;;;;;;;;;;5098952;27;20556;-78
2023/04/28 11:16:22;;;;;;;14.70;11.10;;;12.40;99.90;;;;;;5096576;27;20926;-77
2023/04/28 11:18:53;;;;;;;13.45;10.65;;;;;;;;;;5096811;27;20421;-78
2023/04/28 11:21:20;;;;;;;15.00;11.30;;;;;;;;;;5133507;27;20398;-77
2023/04/28 11:23:46;;;;;;;13.93;10.68;;;;;;;;;;5108944;27;20406;-78
2023/04/28 11:26:12;;;;;;;16.25;11.25;;;;;;;;;;5091747;28;20419;-80
2023/04/28 11:28:52;;;;;;;15.00;10.73;;;;;;;;;;5108425;27;20810;-77
2023/04/28 11:31:22;;;;;;;15.15;10.80;;;;;;;;;;5117813;27;20414;-78
2023/04/28 11:33:51;;;;;;;14.10;10.02;;;;;;;;;;5098566;27;20456;-77
2023/04/28 11:36:34;;;;;;;14.60;10.00;;;;;;;;;;5115069;27;20419;-77
2023/04/28 11:39:01;;;;;;;13.50;9.75;;;;;;;;;;5112873;27;20894;-78
2023/04/28 11:41:28;;;;;;;11.93;9.50;;;;;;;;;;5099156;27;20442;-79
2023/04/28 11:43:54;;;;;;;13.70;10.00;;;;;;;;;;5111207;27;20418;-79
2023/04/28 11:46:21;;;;;;;12.40;9.40;;;;;;;;;;5112139;27;20522;-78
2023/04/28 11:48:47;;;;;;;12.32;9.63;;;;;;;;;;5095398;27;20415;-78
2023/04/28 11:51:35;;;;;;;13.98;9.60;;;13.30;99.90;;;;;;5113153;27;20414;-79
2023/04/28 11:54:01;;;;;;;11.83;10.23;;;;;;;;;;5114571;27;20422;-80
2023/04/28 11:56:28;;;;;;;14.00;10.05;;;;;;;;;;5084677;27;20415;-79
2023/04/28 11:59:01;;;;;;;12.48;9.77;;;;;;;;;;5108539;27;20431;-78
2023/04/28 12:01:27;;;;;;;14.30;10.02;;;;;;;;;;5092250;27;20470;-79
2023/04/28 12:03:54;;;;;;;13.02;9.75;;;;;;;;;;5092282;27;20430;-78
2023/04/28 12:06:20;;;;;;;12.85;9.80;;;;;;;;;;5073601;27;20422;-77
2023/04/28 12:08:46;;;;;;;14.05;10.00;;;;;;;;;;5106989;27;20419;-79
2023/04/28 12:11:13;;;;;;;11.77;10.15;;;;;;;;;;5094320;27;20416;-79
2023/04/28 12:13:40;;;;;;;12.82;10.35;;;;;;;;;;5110358;27;20475;-79
2023/04/28 12:16:07;;;;;;;12.23;9.85;;;;;;;;;;5091954;27;20406;-79
2023/04/28 12:18:33;;;;;;;14.00;10.88;;;;;;;;;;5097496;27;20510;-77
2023/04/28 12:20:59;;;;;;;14.15;10.15;;;;;;;;;;5090436;28;20408;-77
2023/04/28 12:23:33;;;;;;;14.00;10.87;;;13.10;99.90;;;;;;5104070;27;20435;-79
2023/04/28 12:25:59;;;;;;;16.95;12.80;;;;;;;;;;5109708;27;20415;-78
2023/04/28 12:28:41;;;;;;;17.48;12.20;;;;;;;;;;5111742;27;20414;-78
2023/04/28 12:31:08;;;;;;;16.73;12.75;;;;;;;;;;5108560;27;20403;-79
2023/04/28 12:33:38;;;;;;;19.40;13.23;;;;;;;;;;5076736;27;20444;-78
2023/04/28 12:36:05;;;;;;;16.30;13.40;;;;;;;;;;5123495;27;20412;-78
2023/04/28 12:38:31;;;;;;;20.10;15.45;;;;;;;;;;5113782;27;20415;-78
2023/04/28 12:40:58;;;;;;;18.03;14.63;;;;;;;;;;5095372;27;20776;-78
2023/04/28 12:43:25;;;;;;;19.27;15.27;;;;;;;;;;5133059;27;20494;-78
2023/04/28 12:45:53;;;;;;;18.10;15.02;;;;;;;;;;5112482;27;20463;-78
2023/04/28 12:48:20;;;;;;;21.08;15.40;;;;;;;;;;5107143;27;20426;-78
2023/04/28 12:50:46;;;;;;;19.27;15.52;;;;;;;;;;5121898;27;21097;-78
2023/04/28 12:53:12;;;;;;;17.70;14.60;;;;;;;;;;5103745;27;20737;-78
2023/04/28 12:55:39;;;;;;;18.13;15.45;;;;;;;;;;5130261;27;20428;-78
2023/04/28 12:58:05;;;;;;;17.27;15.00;;;;;;;;;;5113000;27;20414;-78
2023/04/28 13:00:32;;;;;;;18.50;14.48;;;;;;;;;;5104633;27;20449;-76
2023/04/28 13:02:58;;;;;;;19.33;14.50;;;;;;;;;;5111454;27;20410;-77
2023/04/28 13:05:24;;;;;;;17.15;14.85;;;;;;;;;;5106012;27;20419;-78
2023/04/28 13:07:51;;;;;;;20.77;15.02;;;;;;;;;;5111749;27;20919;-79
2023/04/28 13:10:18;;;;;;;16.30;14.43;;;;;;;;;;5110780;27;20464;-80
2023/04/28 13:12:44;;;;;;;22.23;15.48;;;;;;;;;;5113721;27;20449;-79
2023/04/28 13:15:10;;;;;;;21.80;17.08;;;;;;;;;;5091508;27;21053;-80
2023/04/28 13:17:36;;;;;;;21.17;17.00;;;;;;;;;;5112872;27;20497;-80
2023/04/28 13:20:03;;;;;;;21.15;17.83;;;;;;;;;;5097000;27;20460;-80
2023/04/28 13:22:30;;;;;;;24.05;18.05;;;;;;;;;;5112462;27;20777;-80
2023/04/28 13:24:56;;;;;;;24.73;18.60;;;;;;;;;;5128987;27;20426;-80
2023/04/28 13:27:23;;;;;;;22.87;19.13;;;;;;;;;;5107175;27;20505;-79
2023/04/28 13:29:49;;;;;;;25.95;20.05;;;;;;;;;;5095318;27;20449;-79
2023/04/28 13:32:15;;;;;;;27.48;21.38;;;;;;;;;;5091654;28;20525;-79
2023/04/28 13:34:41;;;;;;;28.27;22.75;;;;;;;;;;5093484;27;20415;-79
2023/04/28 13:37:08;;;;;;;38.23;25.13;;;;;;;;;;5112259;27;20418;-79
2023/04/28 13:39:34;;;;;;;72.20;26.55;;;;;;;;;;5111491;27;20411;-80
2023/04/28 13:42:00;;;;;;;33.22;23.23;;;;;;;;;;5080162;27;20937;-79
2023/04/28 13:44:26;;;;;;;93.85;27.67;;;;;;;;;;5109436;27;20438;-79
2023/04/28 13:46:53;;;;;;;46.92;25.55;;;;;;;;;;5096072;27;20461;-79
2023/04/28 13:49:21;;;;;;;35.65;24.05;;;;;;;;;;5076793;27;20409;-79
2023/04/28 13:51:47;;;;;;;169.05;33.20;;;;;;;;;;5097718;27;20410;-79
2023/04/28 13:54:13;;;;;;;32.00;24.30;;;;;;;;;;5077385;27;20509;-80
2023/04/28 13:56:40;;;;;;;42.17;25.90;;;;;;;;;;5110848;27;20507;-80
2023/04/28 13:59:06;;;;;;;35.72;26.90;;;;;;;;;;5093960;27;20438;-80
2023/04/28 14:01:32;;;;;;;39.53;26.85;;;;;;;;;;5106717;27;20419;-79
2023/04/28 14:03:58;;;;;;;55.35;28.95;;;;;;;;;;5075848;27;20829;-79
2023/04/28 14:06:24;;;;;;;39.22;28.60;;;;;;;;;;5076746;27;20497;-80
2023/04/28 14:08:51;;;;;;;42.83;32.55;;;;;;;;;;5094479;27;20910;-79
2023/04/28 14:11:17;;;;;;;45.92;33.78;;;;;;;;;;5106350;27;20549;-79
2023/04/28 14:13:43;;;;;;;50.70;35.85;;;;;;;;;;5089639;28;20492;-79